Time,TemperatureF,DewpointF,PressureIn,WindDirection,WindDirectionDegrees,WindSpeedMPH,WindSpeedGustMPH,Humidity,HourlyPrecipIn,Conditions,Clouds,dailyrainin,SolarRadiationWatts/m^2,SoftwareType,DateUTC
2013-02-03 00:04:00,46.8,42.8,30.28,NNE,33,0.0,0.0,86,0.00,,,0.00,0,WeatherCatV1.13B119,2013-02-03 08:04:00,
2013-02-03 00:09:00,46.9,42.9,30.28,NE,34,0.0,0.0,86,0.00,,,0.00,0,WeatherCatV1.13B119,2013-02-03 08:09:00,
2013-02-03 00:14:00,46.9,42.9,30.28,NE,34,0.0,0.0,86,0.00,,,0.00,0,WeatherCatV1.13B119,2013-02-03 08:14:00,
2013-02-03 00:19:00,47.0,43.0,30.28,NNE,33,0.0,0.0,86,0.00,,,0.00,0,WeatherCatV1.13B119,2013-02-03 08:19:00,
2013-02-03 00:24:00,47.1,43.1,30.28,NNE,33,0.0,0.0,86,0.00,,,0.00,0,WeatherCatV1.13B119,2013-02-03 08:24:00,
2013-02-03 00:29:00,47.2,43.2,30.28,NE,34,0.0,1.0,86,0.00,,,0.00,0,WeatherCatV1.13B119,2013-02-03 08:29:00,
2013-02-03 00:34:00,47.3,43.3,30.29,NNE,33,0.0,0.0,86,0.00,,,0.00,0,WeatherCatV1.13B119,2013-02-03 08:34:00,
2013-02-03 00:39:00,47.3,43.3,30.29,NE,34,0.0,0.0,86,0.00,,,0.00,0,WeatherCatV1.13B119,2013-02-03 08:39:00,
2013-02-03 00:44:00,47.4,43.4,30.28,NE,34,0.0,1.0,86,0.00,,,0.00,0,WeatherCatV1.13B119,2013-02-03 08:44:00,
2013-02-03 00:49:00,47.4,43.4,30.28,NNE,33,0.0,1.0,86,0.00,,,0.00,0,WeatherCatV1.13B119,2013-02-03 08:49:00,
2013-02-03 00:54:00,47.4,43.4,30.28,NNE,33,0.0,0.0,86,0.00,,,0.00,0,WeatherCatV1.13B119,2013-02-03 08:54:00,
2013-02-03 00:59:00,47.4,43.4,30.28,NE,34,0.0,0.0,86,0.00,,,0.00,0,WeatherCatV1.13B119,2013-02-03 08:59:00,
2013-02-03 01:04:00,47.4,43.4,30.28,NE,34,0.0,0.0,86,0.00,,,0.00,0,WeatherCatV1.13B119,2013-02-03 09:04:00,
2013-02-03 01:09:00,47.4,43.4,30.28,NE,34,0.0,0.0,86,0.00,,,0.00,0,WeatherCatV1.13B119,2013-02-03 09:09:00,
2013-02-03 01:14:00,47.3,43.3,30.28,NNE,33,0.0,1.0,86,0.00,,,0.00,0,WeatherCatV1.13B119,2013-02-03 09:14:00,
2013-02-03 01:19:00,47.3,43.3,30.28,NNE,33,0.0,0.0,86,0.00,,,0.00,0,WeatherCatV1.13B119,2013-02-03 09:19:00,
2013-02-03 01:24:00,47.3,43.3,30.28,NE,34,0.0,0.0,86,0.00,,,0.00,0,WeatherCatV1.13B119,2013-02-03 09:24:00,
2013-02-03 01:29:00,47.2,43.2,30.28,NNE,33,0.0,0.0,86,0.00,,,0.00,0,WeatherCatV1.13B119,2013-02-03 09:29:00,
2013-02-03 01:34:00,47.0,43.0,30.28,NNE,33,0.0,1.0,86,0.00,,,0.00,0,WeatherCatV1.13B119,2013-02-03 09:34:00,
2013-02-03 01:39:00,46.9,42.9,30.28,NE,34,0.0,1.0,86,0.00,,,0.00,0,WeatherCatV1.13B119,2013-02-03 09:39:00,
2013-02-03 01:44:00,46.7,42.7,30.28,NE,34,0.0,0.0,86,0.00,,,0.00,0,WeatherCatV1.13B119,2013-02-03 09:44:00,
2013-02-03 01:49:00,46.5,42.5,30.28,NE,34,0.0,1.0,86,0.00,,,0.00,0,WeatherCatV1.13B119,2013-02-03 09:49:00,
2013-02-03 01:54:00,46.3,42.3,30.28,NE,34,0.0,0.0,86,0.00,,,0.00,0,WeatherCatV1.13B119,2013-02-03 09:54:00,
2013-02-03 01:59:00,46.0,42.0,30.28,SSW,203,0.0,0.0,86,0.00,,,0.00,0,WeatherCatV1.13B119,2013-02-03 09:59:00,
2013-02-03 02:04:00,45.9,42.0,30.28,SSW,203,0.0,0.0,86,0.00,,,0.00,0,WeatherCatV1.13B119,2013-02-03 10:04:00,
2013-02-03 02:09:00,45.7,41.8,30.28,SSW,203,0.0,1.0,86,0.00,,,0.00,0,WeatherCatV1.13B119,2013-02-03 10:09:00,
2013-02-03 02:14:00,45.6,41.4,30.28,SSW,203,0.0,0.0,85,0.00,,,0.00,0,WeatherCatV1.13B119,2013-02-03 10:14:00,
2013-02-03 02:19:00,45.4,41.2,30.28,SSW,204,0.0,0.0,85,0.00,,,0.00,0,WeatherCatV1.13B119,2013-02-03 10:19:00,
2013-02-03 02:24:00,45.2,41.0,30.28,SSW,203,0.0,0.0,85,0.00,,,0.00,0,WeatherCatV1.13B119,2013-02-03 10:24:00,
2013-02-03 02:29:00,45.0,40.8,30.28,SSW,205,0.0,0.0,85,0.00,,,0.00,0,WeatherCatV1.13B119,2013-02-03 10:29:00,
2013-02-03 02:34:00,44.8,40.6,30.28,SSW,205,0.0,1.0,85,0.00,,,0.00,0,WeatherCatV1.13B119,2013-02-03 10:34:00,
2013-02-03 02:39:00,44.7,40.5,30.28,SSW,205,0.0,0.0,85,0.00,,,0.00,0,WeatherCatV1.13B119,2013-02-03 10:39:00,
2013-02-03 02:42:00,44.5,40.3,30.28,SSW,205,0.0,0.0,85,0.00,,,0.00,0,WeatherCatV1.13B119,2013-02-03 10:42:00,
2013-02-03 02:47:00,44.4,40.2,30.28,SSW,205,0.0,0.0,85,0.00,,,0.00,0,WeatherCatV1.13B119,2013-02-03 10:47:00,
2013-02-03 02:52:00,44.2,40.0,30.28,SSW,205,0.0,0.0,85,0.00,,,0.00,0,WeatherCatV1.13B119,2013-02-03 10:52:00,
2013-02-03 02:57:00,44.0,39.8,30.28,SSW,205,0.0,0.0,85,0.00,,,0.00,0,WeatherCatV1.13B119,2013-02-03 10:57:00,
2013-02-03 03:02:00,43.9,39.7,30.28,SSW,205,0.0,0.0,85,0.00,,,0.00,0,WeatherCatV1.13B119,2013-02-03 11:02:00,
2013-02-03 03:07:00,43.7,39.5,30.28,SSW,205,0.0,0.0,85,0.00,,,0.00,0,WeatherCatV1.13B119,2013-02-03 11:07:00,
2013-02-03 03:12:00,43.6,39.4,30.28,SSW,205,0.0,0.0,85,0.00,,,0.00,0,WeatherCatV1.13B119,2013-02-03 11:12:00,
2013-02-03 03:17:00,43.5,39.3,30.28,SSW,205,0.0,0.0,85,0.00,,,0.00,0,WeatherCatV1.13B119,2013-02-03 11:17:00,
2013-02-03 03:22:00,43.3,39.1,30.28,SSW,205,0.0,0.0,85,0.00,,,0.00,0,WeatherCatV1.13B119,2013-02-03 11:22:00,
2013-02-03 03:27:00,43.2,39.0,30.28,SSW,205,0.0,0.0,85,0.00,,,0.00,0,WeatherCatV1.13B119,2013-02-03 11:27:00,
2013-02-03 03:32:00,43.0,38.8,30.28,SSW,205,0.0,0.0,85,0.00,,,0.00,0,WeatherCatV1.13B119,2013-02-03 11:32:00,
2013-02-03 03:37:00,42.9,38.7,30.28,SSW,205,0.0,0.0,85,0.00,,,0.00,0,WeatherCatV1.13B119,2013-02-03 11:37:00,
2013-02-03 03:42:00,42.7,38.5,30.28,SSW,205,0.0,0.0,85,0.00,,,0.00,0,WeatherCatV1.13B119,2013-02-03 11:42:00,
2013-02-03 03:47:00,42.5,38.3,30.27,SSW,205,0.0,0.0,85,0.00,,,0.00,0,WeatherCatV1.13B119,2013-02-03 11:47:00,
2013-02-03 03:52:00,42.4,38.2,30.27,SSW,205,0.0,0.0,85,0.00,,,0.00,0,WeatherCatV1.13B119,2013-02-03 11:52:00,
2013-02-03 03:57:00,42.2,38.0,30.27,SSW,205,0.0,0.0,85,0.00,,,0.00,0,WeatherCatV1.13B119,2013-02-03 11:57:00,
2013-02-03 04:02:00,42.1,37.9,30.27,SSW,205,0.0,0.0,85,0.00,,,0.00,0,WeatherCatV1.13B119,2013-02-03 12:02:00,
2013-02-03 04:07:00,41.9,37.7,30.27,SSW,205,0.0,0.0,85,0.00,,,0.00,0,WeatherCatV1.13B119,2013-02-03 12:07:00,
2013-02-03 04:12:00,41.8,37.6,30.27,SSW,205,0.0,0.0,85,0.00,,,0.00,0,WeatherCatV1.13B119,2013-02-03 12:12:00,
2013-02-03 04:17:00,41.6,37.4,30.27,SSW,205,0.0,0.0,85,0.00,,,0.00,0,WeatherCatV1.13B119,2013-02-03 12:17:00,
2013-02-03 04:22:00,41.5,37.3,30.27,SSW,205,0.0,0.0,85,0.00,,,0.00,0,WeatherCatV1.13B119,2013-02-03 12:22:00,
2013-02-03 04:27:00,41.4,37.2,30.27,SSW,205,0.0,0.0,85,0.00,,,0.00,0,WeatherCatV1.13B119,2013-02-03 12:27:00,
2013-02-03 04:32:00,41.2,37.0,30.27,SSW,205,0.0,0.0,85,0.00,,,0.00,0,WeatherCatV1.13B119,2013-02-03 12:32:00,
2013-02-03 04:37:00,41.1,36.9,30.27,SSW,205,0.0,0.0,85,0.00,,,0.00,0,WeatherCatV1.13B119,2013-02-03 12:37:00,
2013-02-03 04:42:00,41.1,37.2,30.27,SSW,205,0.0,1.0,86,0.00,,,0.00,0,WeatherCatV1.13B119,2013-02-03 12:42:00,
2013-02-03 04:47:00,41.0,37.1,30.27,SSW,205,0.0,0.0,86,0.00,,,0.00,0,WeatherCatV1.13B119,2013-02-03 12:47:00,
2013-02-03 04:52:00,40.9,37.0,30.27,SSW,205,0.0,0.0,86,0.00,,,0.00,0,WeatherCatV1.13B119,2013-02-03 12:52:00,
2013-02-03 04:57:00,40.9,37.0,30.26,SSW,205,0.0,0.0,86,0.00,,,0.00,0,WeatherCatV1.13B119,2013-02-03 12:57:00,
2013-02-03 05:02:00,40.7,36.8,30.26,SSW,205,0.0,0.0,86,0.00,,,0.00,0,WeatherCatV1.13B119,2013-02-03 13:02:00,
2013-02-03 05:07:00,40.7,36.8,30.26,SSW,205,0.0,0.0,86,0.00,,,0.00,0,WeatherCatV1.13B119,2013-02-03 13:07:00,
2013-02-03 05:12:00,40.6,36.7,30.27,SSW,205,0.0,0.0,86,0.00,,,0.00,0,WeatherCatV1.13B119,2013-02-03 13:12:00,
2013-02-03 05:17:00,40.5,36.6,30.26,SSW,205,0.0,0.0,86,0.00,,,0.00,0,WeatherCatV1.13B119,2013-02-03 13:17:00,
2013-02-03 05:22:00,40.4,36.5,30.27,SSW,205,0.0,0.0,86,0.00,,,0.00,0,WeatherCatV1.13B119,2013-02-03 13:22:00,
2013-02-03 05:27:00,40.3,36.5,30.27,SSW,205,0.0,0.0,86,0.00,,,0.00,0,WeatherCatV1.13B119,2013-02-03 13:27:00,
2013-02-03 05:32:00,40.2,36.4,30.27,SSW,205,0.0,0.0,86,0.00,,,0.00,0,WeatherCatV1.13B119,2013-02-03 13:32:00,
2013-02-03 05:37:00,40.1,36.3,30.26,SSW,205,0.0,0.0,86,0.00,,,0.00,0,WeatherCatV1.13B119,2013-02-03 13:37:00,
2013-02-03 05:42:00,40.0,36.2,30.26,SSW,205,0.0,0.0,86,0.00,,,0.00,0,WeatherCatV1.13B119,2013-02-03 13:42:00,
2013-02-03 05:47:00,40.0,36.2,30.26,SSW,205,0.0,0.0,86,0.00,,,0.00,0,WeatherCatV1.13B119,2013-02-03 13:47:00,
2013-02-03 05:52:00,39.9,36.1,30.26,SSW,205,0.0,0.0,86,0.00,,,0.00,0,WeatherCatV1.13B119,2013-02-03 13:52:00,
2013-02-03 05:57:00,39.8,36.0,30.26,SSW,205,0.0,0.0,86,0.00,,,0.00,0,WeatherCatV1.13B119,2013-02-03 13:57:00,
2013-02-03 06:02:00,39.8,36.0,30.27,SSW,205,0.0,0.0,86,0.00,,,0.00,0,WeatherCatV1.13B119,2013-02-03 14:02:00,
2013-02-03 06:07:00,39.9,36.3,30.27,SSW,205,0.0,0.0,87,0.00,,,0.00,0,WeatherCatV1.13B119,2013-02-03 14:07:00,
2013-02-03 06:12:00,40.0,36.4,30.27,SSW,205,0.0,0.0,87,0.00,,,0.00,0,WeatherCatV1.13B119,2013-02-03 14:12:00,
2013-02-03 06:17:00,40.0,36.4,30.27,SSW,205,0.0,0.0,87,0.00,,,0.00,0,WeatherCatV1.13B119,2013-02-03 14:17:00,
2013-02-03 06:22:00,40.0,36.4,30.27,SSW,205,0.0,0.0,87,0.00,,,0.00,0,WeatherCatV1.13B119,2013-02-03 14:22:00,
2013-02-03 06:27:00,40.2,36.6,30.27,SSW,205,0.0,0.0,87,0.00,,,0.00,0,WeatherCatV1.13B119,2013-02-03 14:27:00,
2013-02-03 06:32:00,40.3,36.7,30.27,SSW,205,0.0,0.0,87,0.00,,,0.00,0,WeatherCatV1.13B119,2013-02-03 14:32:00,
2013-02-03 06:37:00,40.5,36.9,30.28,SSW,205,0.0,0.0,87,0.00,,,0.00,0,WeatherCatV1.13B119,2013-02-03 14:37:00,
2013-02-03 06:42:00,40.6,37.0,30.28,SSW,205,0.0,0.0,87,0.00,,,0.00,0,WeatherCatV1.13B119,2013-02-03 14:42:00,
2013-02-03 06:47:00,40.6,37.0,30.28,SSW,205,0.0,0.0,87,0.00,,,0.00,0,WeatherCatV1.13B119,2013-02-03 14:47:00,
2013-02-03 06:52:00,40.7,37.1,30.28,SSW,205,0.0,0.0,87,0.00,,,0.00,0,WeatherCatV1.13B119,2013-02-03 14:52:00,
2013-02-03 06:57:00,40.8,37.2,30.28,SSW,205,0.0,0.0,87,0.00,,,0.00,0,WeatherCatV1.13B119,2013-02-03 14:57:00,
2013-02-03 07:02:00,41.1,37.8,30.28,SSW,205,0.0,0.0,88,0.00,,,0.00,0,WeatherCatV1.13B119,2013-02-03 15:02:00,
2013-02-03 07:07:00,41.3,38.0,30.28,SSW,205,0.0,0.0,88,0.00,,,0.00,0,WeatherCatV1.13B119,2013-02-03 15:07:00,
2013-02-03 07:12:00,41.4,38.1,30.28,SSW,205,0.0,0.0,88,0.00,,,0.00,0,WeatherCatV1.13B119,2013-02-03 15:12:00,
2013-02-03 07:17:00,41.5,38.2,30.28,SSW,205,0.0,0.0,88,0.00,,,0.00,5,WeatherCatV1.13B119,2013-02-03 15:17:00,
2013-02-03 07:22:00,41.7,38.4,30.28,SSW,205,0.0,0.0,88,0.00,,,0.00,7,WeatherCatV1.13B119,2013-02-03 15:22:00,
2013-02-03 07:27:00,41.7,38.4,30.28,SSW,205,0.0,0.0,88,0.00,,,0.00,11,WeatherCatV1.13B119,2013-02-03 15:27:00,
2013-02-03 07:32:00,41.8,38.5,30.28,SSW,205,0.0,0.0,88,0.00,,,0.00,16,WeatherCatV1.13B119,2013-02-03 15:32:00,
2013-02-03 07:37:00,42.0,38.7,30.27,SSW,205,0.0,0.0,88,0.00,,,0.00,19,WeatherCatV1.13B119,2013-02-03 15:37:00,
2013-02-03 07:42:00,42.3,39.0,30.27,SSW,205,0.0,0.0,88,0.00,,,0.00,21,WeatherCatV1.13B119,2013-02-03 15:42:00,
2013-02-03 07:47:00,42.4,39.1,30.27,SSW,205,0.0,0.0,88,0.00,,,0.00,28,WeatherCatV1.13B119,2013-02-03 15:47:00,
2013-02-03 07:52:00,42.4,39.1,30.27,SSW,205,0.0,0.0,88,0.00,,,0.00,35,WeatherCatV1.13B119,2013-02-03 15:52:00,
2013-02-03 07:57:00,42.5,39.2,30.27,SSW,205,0.0,0.0,88,0.00,,,0.00,42,WeatherCatV1.13B119,2013-02-03 15:57:00,
2013-02-03 08:02:00,42.6,39.3,30.27,SSW,205,0.0,0.0,88,0.00,,,0.00,44,WeatherCatV1.13B119,2013-02-03 16:02:00,
2013-02-03 08:07:00,42.7,39.4,30.28,SSW,205,0.0,0.0,88,0.00,,,0.00,54,WeatherCatV1.13B119,2013-02-03 16:07:00,
2013-02-03 08:12:00,42.7,39.4,30.28,SSW,205,0.0,0.0,88,0.00,,,0.00,54,WeatherCatV1.13B119,2013-02-03 16:12:00,
2013-02-03 08:17:00,42.9,39.9,30.27,SSW,205,0.0,0.0,89,0.00,,,0.00,62,WeatherCatV1.13B119,2013-02-03 16:17:00,
2013-02-03 08:22:00,43.0,40.0,30.27,SSW,205,0.0,0.0,89,0.00,,,0.00,77,WeatherCatV1.13B119,2013-02-03 16:22:00,
2013-02-03 08:27:00,43.1,39.8,30.27,SSW,205,0.0,0.0,88,0.00,,,0.00,86,WeatherCatV1.13B119,2013-02-03 16:27:00,
2013-02-03 08:32:00,43.2,39.9,30.28,SSW,205,0.0,0.0,88,0.00,,,0.00,72,WeatherCatV1.13B119,2013-02-03 16:32:00,
2013-02-03 08:37:00,43.3,40.0,30.28,SSW,205,0.0,0.0,88,0.00,,,0.00,69,WeatherCatV1.13B119,2013-02-03 16:37:00,
2013-02-03 08:42:00,43.4,40.1,30.28,SSW,205,0.0,0.0,88,0.00,,,0.00,76,WeatherCatV1.13B119,2013-02-03 16:42:00,
2013-02-03 08:47:00,43.7,40.7,30.28,SSW,205,0.0,0.0,89,0.00,,,0.00,83,WeatherCatV1.13B119,2013-02-03 16:47:00,
2013-02-03 08:52:00,44.1,41.1,30.28,SSW,205,0.0,0.0,89,0.00,,,0.00,102,WeatherCatV1.13B119,2013-02-03 16:52:00,
2013-02-03 08:57:00,45.2,42.2,30.28,SSW,205,0.0,0.0,89,0.00,,,0.00,141,WeatherCatV1.13B119,2013-02-03 16:57:00,
2013-02-03 09:02:00,46.1,42.7,30.28,SSW,205,0.0,0.0,88,0.00,,,0.00,162,WeatherCatV1.13B119,2013-02-03 17:02:00,
2013-02-03 09:07:00,46.9,42.9,30.28,SSW,205,0.0,0.0,86,0.00,,,0.00,246,WeatherCatV1.13B119,2013-02-03 17:07:00,
2013-02-03 09:12:00,48.0,43.4,30.28,SSW,205,0.0,0.0,84,0.00,,,0.00,274,WeatherCatV1.13B119,2013-02-03 17:12:00,
2013-02-03 09:17:00,48.9,43.0,30.28,SSW,205,0.0,1.0,80,0.00,,,0.00,274,WeatherCatV1.13B119,2013-02-03 17:17:00,
2013-02-03 09:22:00,49.7,43.1,30.28,SSW,205,0.0,1.0,78,0.00,,,0.00,281,WeatherCatV1.13B119,2013-02-03 17:22:00,
2013-02-03 09:27:00,50.7,43.4,30.28,SSW,205,0.0,1.0,76,0.00,,,0.00,353,WeatherCatV1.13B119,2013-02-03 17:27:00,
2013-02-03 09:32:00,51.2,43.2,30.28,SSW,205,0.0,1.0,74,0.00,,,0.00,156,WeatherCatV1.13B119,2013-02-03 17:32:00,
2013-02-03 09:37:00,51.3,42.9,30.28,North,9,0.0,2.0,73,0.00,,,0.00,116,WeatherCatV1.13B119,2013-02-03 17:37:00,
2013-02-03 09:42:00,51.3,42.6,30.28,North,9,0.0,0.0,72,0.00,,,0.00,77,WeatherCatV1.13B119,2013-02-03 17:42:00,
2013-02-03 09:47:00,51.2,42.5,30.28,North,9,0.0,2.0,72,0.00,,,0.00,84,WeatherCatV1.13B119,2013-02-03 17:47:00,
2013-02-03 09:52:00,51.2,42.5,30.28,North,9,0.0,1.0,72,0.00,,,0.00,404,WeatherCatV1.13B119,2013-02-03 17:52:00,
2013-02-03 09:57:00,52.7,43.2,30.28,North,11,1.0,1.0,70,0.00,,,0.00,462,WeatherCatV1.13B119,2013-02-03 17:57:00,
2013-02-03 10:02:00,53.0,42.3,30.28,North,11,0.0,1.0,67,0.00,,,0.00,541,WeatherCatV1.13B119,2013-02-03 18:02:00,
2013-02-03 10:07:00,53.6,42.9,30.28,SW,229,2.0,3.0,67,0.00,,,0.00,283,WeatherCatV1.13B119,2013-02-03 18:07:00,
2013-02-03 10:12:00,53.1,42.0,30.28,WSW,254,0.0,2.0,66,0.00,,,0.00,209,WeatherCatV1.13B119,2013-02-03 18:12:00,
2013-02-03 10:17:00,53.0,42.3,30.28,WSW,254,0.0,1.0,67,0.00,,,0.00,118,WeatherCatV1.13B119,2013-02-03 18:17:00,
2013-02-03 10:22:00,53.0,42.3,30.28,WSW,253,0.0,0.0,67,0.00,,,0.00,113,WeatherCatV1.13B119,2013-02-03 18:22:00,
2013-02-03 10:27:00,53.3,43.8,30.27,WSW,253,0.0,2.0,70,0.00,,,0.00,557,WeatherCatV1.13B119,2013-02-03 18:27:00,
2013-02-03 10:32:00,54.1,43.0,30.27,West,260,2.0,3.0,66,0.00,,,0.00,599,WeatherCatV1.13B119,2013-02-03 18:32:00,
2013-02-03 10:37:00,54.1,43.0,30.28,West,263,0.0,1.0,66,0.00,,,0.00,308,WeatherCatV1.13B119,2013-02-03 18:37:00,
2013-02-03 10:42:00,53.6,42.5,30.28,West,263,0.0,0.0,66,0.00,,,0.00,130,WeatherCatV1.13B119,2013-02-03 18:42:00,
2013-02-03 10:47:00,54.0,43.3,30.28,West,263,0.0,1.0,67,0.00,,,0.00,508,WeatherCatV1.13B119,2013-02-03 18:47:00,
2013-02-03 10:52:00,54.6,43.5,30.28,NE,52,1.0,1.0,66,0.00,,,0.00,522,WeatherCatV1.13B119,2013-02-03 18:52:00,
2013-02-03 10:56:00,54.5,42.2,30.28,NE,49,0.0,4.0,63,0.00,,,0.00,541,WeatherCatV1.13B119,2013-02-03 18:56:00,
2013-02-03 11:01:00,55.7,43.3,30.28,North,5,0.0,2.0,63,0.00,,,0.00,582,WeatherCatV1.13B119,2013-02-03 19:01:00,
2013-02-03 11:06:00,56.8,44.8,30.27,East,90,0.0,2.0,64,0.00,,,0.00,668,WeatherCatV1.13B119,2013-02-03 19:06:00,
2013-02-03 11:11:00,55.9,42.2,30.27,NNW,344,3.0,6.0,60,0.00,,,0.00,677,WeatherCatV1.13B119,2013-02-03 19:11:00,
2013-02-03 11:16:00,55.2,42.0,30.27,NNE,18,2.0,5.0,61,0.00,,,0.00,707,WeatherCatV1.13B119,2013-02-03 19:16:00,
2013-02-03 11:21:00,55.3,42.5,30.27,NE,34,0.0,4.0,62,0.00,,,0.00,322,WeatherCatV1.13B119,2013-02-03 19:21:00,
2013-02-03 11:26:00,55.1,42.7,30.27,North,5,1.0,4.0,63,0.00,,,0.00,329,WeatherCatV1.13B119,2013-02-03 19:26:00,
2013-02-03 11:31:00,55.7,42.5,30.26,NE,40,1.0,6.0,61,0.00,,,0.00,587,WeatherCatV1.13B119,2013-02-03 19:31:00,
2013-02-03 11:36:00,56.3,43.4,30.26,NE,54,0.0,1.0,62,0.00,,,0.00,599,WeatherCatV1.13B119,2013-02-03 19:36:00,
2013-02-03 11:41:00,56.1,43.3,30.25,East,86,2.0,4.0,62,0.00,,,0.00,573,WeatherCatV1.13B119,2013-02-03 19:41:00,
2013-02-03 11:46:00,55.5,42.7,30.25,North,0,6.0,6.0,62,0.00,,,0.00,559,WeatherCatV1.13B119,2013-02-03 19:46:00,
2013-02-03 11:51:00,54.6,42.7,30.24,East,95,0.0,2.0,64,0.00,,,0.00,550,WeatherCatV1.13B119,2013-02-03 19:51:00,
2013-02-03 11:56:00,55.4,43.4,30.24,NNE,30,0.0,3.0,64,0.00,,,0.00,555,WeatherCatV1.13B119,2013-02-03 19:56:00,
2013-02-03 12:01:00,55.6,42.8,30.23,ENE,78,1.0,1.0,62,0.00,,,0.00,559,WeatherCatV1.13B119,2013-02-03 20:01:00,
2013-02-03 12:06:00,55.9,42.6,30.23,ESE,119,0.0,2.0,61,0.00,,,0.00,563,WeatherCatV1.13B119,2013-02-03 20:06:00,
2013-02-03 12:11:00,56.9,44.0,30.23,ESE,117,1.0,2.0,62,0.00,,,0.00,552,WeatherCatV1.13B119,2013-02-03 20:11:00,
2013-02-03 12:16:00,57.3,44.0,30.22,WSW,240,0.0,3.0,61,0.00,,,0.00,554,WeatherCatV1.13B119,2013-02-03 20:16:00,
2013-02-03 12:21:00,57.9,43.2,30.22,NNE,14,1.0,4.0,58,0.00,,,0.00,552,WeatherCatV1.13B119,2013-02-03 20:21:00,
2013-02-03 12:26:00,57.7,43.5,30.22,SE,131,0.0,3.0,59,0.00,,,0.00,555,WeatherCatV1.13B119,2013-02-03 20:26:00,
2013-02-03 12:31:00,57.6,43.4,30.22,ESE,107,1.0,3.0,59,0.00,,,0.00,555,WeatherCatV1.13B119,2013-02-03 20:31:00,
2013-02-03 12:36:00,57.3,42.2,30.22,ENE,63,0.0,5.0,57,0.00,,,0.00,554,WeatherCatV1.13B119,2013-02-03 20:36:00,
2013-02-03 12:41:00,58.0,44.2,30.22,ENE,63,1.0,2.0,60,0.00,,,0.00,554,WeatherCatV1.13B119,2013-02-03 20:41:00,
2013-02-03 12:46:00,57.1,43.3,30.21,North,355,4.0,5.0,60,0.00,,,0.00,550,WeatherCatV1.13B119,2013-02-03 20:46:00,
2013-02-03 12:51:00,57.3,43.1,30.21,NNE,18,0.0,3.0,59,0.00,,,0.00,548,WeatherCatV1.13B119,2013-02-03 20:51:00,
2013-02-03 12:56:00,57.7,43.9,30.21,NE,46,2.0,5.0,60,0.00,,,0.00,538,WeatherCatV1.13B119,2013-02-03 20:56:00,
2013-02-03 13:01:00,57.8,43.6,30.21,NNE,26,0.0,4.0,59,0.00,,,0.00,517,WeatherCatV1.13B119,2013-02-03 21:01:00,
2013-02-03 13:06:00,56.9,42.7,30.21,North,0,0.0,4.0,59,0.00,,,0.00,432,WeatherCatV1.13B119,2013-02-03 21:06:00,
2013-02-03 13:11:00,56.3,43.0,30.20,North,5,2.0,2.0,61,0.00,,,0.00,533,WeatherCatV1.13B119,2013-02-03 21:11:00,
2013-02-03 13:16:00,57.5,43.7,30.20,NE,46,1.0,3.0,60,0.00,,,0.00,529,WeatherCatV1.13B119,2013-02-03 21:16:00,
2013-02-03 13:21:00,58.2,43.5,30.20,East,82,1.0,3.0,58,0.00,,,0.00,341,WeatherCatV1.13B119,2013-02-03 21:21:00,
2013-02-03 13:26:00,58.0,44.2,30.20,NE,51,0.0,1.0,60,0.00,,,0.00,213,WeatherCatV1.13B119,2013-02-03 21:26:00,
2013-02-03 13:31:00,57.9,43.2,30.20,NE,48,2.0,2.0,58,0.00,,,0.00,475,WeatherCatV1.13B119,2013-02-03 21:31:00,
2013-02-03 13:36:00,57.8,43.6,30.20,ENE,62,0.0,5.0,59,0.00,,,0.00,392,WeatherCatV1.13B119,2013-02-03 21:36:00,
2013-02-03 13:41:00,58.2,43.5,30.19,NE,40,2.0,5.0,58,0.00,,,0.00,506,WeatherCatV1.13B119,2013-02-03 21:41:00,
2013-02-03 13:46:00,58.1,44.3,30.19,NNE,17,0.0,3.0,60,0.00,,,0.00,464,WeatherCatV1.13B119,2013-02-03 21:46:00,
2013-02-03 13:51:00,57.7,43.5,30.20,NE,34,0.0,2.0,59,0.00,,,0.00,417,WeatherCatV1.13B119,2013-02-03 21:51:00,
2013-02-03 13:56:00,57.5,43.7,30.20,NNE,33,1.0,2.0,60,0.00,,,0.00,480,WeatherCatV1.13B119,2013-02-03 21:56:00,
2013-02-03 14:01:00,57.7,44.3,30.20,NE,36,0.0,4.0,61,0.00,,,0.00,443,WeatherCatV1.13B119,2013-02-03 22:01:00,
2013-02-03 14:06:00,57.6,44.2,30.19,NE,45,1.0,1.0,61,0.00,,,0.00,294,WeatherCatV1.13B119,2013-02-03 22:06:00,
2013-02-03 14:11:00,56.8,43.5,30.19,NNE,14,3.0,3.0,61,0.00,,,0.00,454,WeatherCatV1.13B119,2013-02-03 22:11:00,
2013-02-03 14:16:00,57.3,44.8,30.19,NE,46,0.0,6.0,63,0.00,,,0.00,371,WeatherCatV1.13B119,2013-02-03 22:16:00,
2013-02-03 14:21:00,56.9,43.6,30.19,North,10,2.0,2.0,61,0.00,,,0.00,357,WeatherCatV1.13B119,2013-02-03 22:21:00,
2013-02-03 14:26:00,57.7,44.3,30.19,NE,41,0.0,2.0,61,0.00,,,0.00,188,WeatherCatV1.13B119,2013-02-03 22:26:00,
2013-02-03 14:31:00,57.1,43.8,30.19,North,9,0.0,4.0,61,0.00,,,0.00,353,WeatherCatV1.13B119,2013-02-03 22:31:00,
2013-02-03 14:36:00,57.6,44.2,30.19,NNE,32,3.0,7.0,61,0.00,,,0.00,285,WeatherCatV1.13B119,2013-02-03 22:36:00,
2013-02-03 14:41:00,57.8,45.3,30.19,North,10,0.0,1.0,63,0.00,,,0.00,388,WeatherCatV1.13B119,2013-02-03 22:41:00,
2013-02-03 14:46:00,57.7,44.8,30.19,NNE,23,2.0,6.0,62,0.00,,,0.00,47,WeatherCatV1.13B119,2013-02-03 22:46:00,
2013-02-03 14:51:00,57.8,45.3,30.19,West,279,1.0,3.0,63,0.00,,,0.00,44,WeatherCatV1.13B119,2013-02-03 22:51:00,
2013-02-03 14:56:00,58.1,45.1,30.18,NNE,29,1.0,2.0,62,0.00,,,0.00,42,WeatherCatV1.13B119,2013-02-03 22:56:00,
2013-02-03 15:01:00,58.2,45.2,30.18,North,5,2.0,2.0,62,0.00,,,0.00,42,WeatherCatV1.13B119,2013-02-03 23:01:00,
2013-02-03 15:06:00,58.1,45.1,30.18,North,5,3.0,3.0,62,0.00,,,0.00,195,WeatherCatV1.13B119,2013-02-03 23:06:00,
2013-02-03 15:11:00,58.0,45.1,30.18,NNE,21,1.0,9.0,62,0.00,,,0.00,295,WeatherCatV1.13B119,2013-02-03 23:11:00,
2013-02-03 15:16:00,57.5,44.6,30.18,NNE,32,3.0,3.0,62,0.00,,,0.00,318,WeatherCatV1.13B119,2013-02-03 23:16:00,
2013-02-03 15:21:00,56.6,44.6,30.18,NNE,28,0.0,2.0,64,0.00,,,0.00,304,WeatherCatV1.13B119,2013-02-03 23:21:00,
2013-02-03 15:26:00,56.4,44.4,30.17,North,5,0.0,2.0,64,0.00,,,0.00,295,WeatherCatV1.13B119,2013-02-03 23:26:00,
2013-02-03 15:31:00,56.4,44.4,30.17,NNE,22,0.0,3.0,64,0.00,,,0.00,285,WeatherCatV1.13B119,2013-02-03 23:31:00,
2013-02-03 15:36:00,56.4,44.4,30.17,NNE,19,0.0,2.0,64,0.00,,,0.00,272,WeatherCatV1.13B119,2013-02-03 23:36:00,
2013-02-03 15:41:00,56.2,44.2,30.17,North,0,0.0,3.0,64,0.00,,,0.00,257,WeatherCatV1.13B119,2013-02-03 23:41:00,
2013-02-03 15:46:00,56.3,44.3,30.17,NNW,347,1.0,4.0,64,0.00,,,0.00,239,WeatherCatV1.13B119,2013-02-03 23:46:00,
2013-02-03 15:51:00,56.0,44.0,30.18,NNE,20,1.0,3.0,64,0.00,,,0.00,39,WeatherCatV1.13B119,2013-02-03 23:51:00,
2013-02-03 15:56:00,56.1,44.1,30.18,NE,45,1.0,6.0,64,0.00,,,0.00,33,WeatherCatV1.13B119,2013-02-03 23:56:00,
2013-02-03 16:01:00,56.1,43.7,30.18,ENE,60,1.0,4.0,63,0.00,,,0.00,192,WeatherCatV1.13B119,2013-02-04 00:01:00,
2013-02-03 16:06:00,56.1,44.1,30.17,NNE,33,1.0,1.0,64,0.00,,,0.00,49,WeatherCatV1.13B119,2013-02-04 00:06:00,
2013-02-03 16:11:00,56.1,43.7,30.17,NNE,30,1.0,2.0,63,0.00,,,0.00,30,WeatherCatV1.13B119,2013-02-04 00:11:00,
2013-02-03 16:16:00,56.0,43.6,30.17,NE,35,2.0,3.0,63,0.00,,,0.00,28,WeatherCatV1.13B119,2013-02-04 00:16:00,
2013-02-03 16:21:00,55.9,43.5,30.17,NE,45,0.0,0.0,63,0.00,,,0.00,26,WeatherCatV1.13B119,2013-02-04 00:21:00,
2013-02-03 16:26:00,55.8,43.4,30.17,NE,35,1.0,2.0,63,0.00,,,0.00,26,WeatherCatV1.13B119,2013-02-04 00:26:00,
2013-02-03 16:31:00,55.7,43.7,30.17,NE,35,0.0,2.0,64,0.00,,,0.00,25,WeatherCatV1.13B119,2013-02-04 00:31:00,
2013-02-03 16:36:00,55.6,43.6,30.17,NE,35,0.0,2.0,64,0.00,,,0.00,23,WeatherCatV1.13B119,2013-02-04 00:36:00,
2013-02-03 16:41:00,55.5,43.5,30.17,NE,35,0.0,1.0,64,0.00,,,0.00,21,WeatherCatV1.13B119,2013-02-04 00:41:00,
2013-02-03 16:46:00,55.5,43.5,30.17,NNE,20,0.0,0.0,64,0.00,,,0.00,21,WeatherCatV1.13B119,2013-02-04 00:46:00,
2013-02-03 16:51:00,55.3,43.7,30.17,NNE,19,1.0,2.0,65,0.00,,,0.00,19,WeatherCatV1.13B119,2013-02-04 00:51:00,
2013-02-03 16:56:00,55.2,43.6,30.17,NNE,20,0.0,1.0,65,0.00,,,0.00,18,WeatherCatV1.13B119,2013-02-04 00:56:00,
2013-02-03 17:01:00,55.1,43.5,30.17,NNE,20,0.0,0.0,65,0.00,,,0.00,16,WeatherCatV1.13B119,2013-02-04 01:01:00,
2013-02-03 17:06:00,55.0,43.5,30.17,NNE,20,0.0,0.0,65,0.00,,,0.00,14,WeatherCatV1.13B119,2013-02-04 01:06:00,
2013-02-03 17:11:00,54.9,43.4,30.17,NNE,19,0.0,1.0,65,0.00,,,0.00,12,WeatherCatV1.13B119,2013-02-04 01:11:00,
2013-02-03 17:16:00,54.7,43.2,30.17,NNE,20,0.0,1.0,65,0.00,,,0.00,11,WeatherCatV1.13B119,2013-02-04 01:16:00,
2013-02-03 17:21:00,54.6,43.5,30.17,NNE,20,0.0,0.0,66,0.00,,,0.00,9,WeatherCatV1.13B119,2013-02-04 01:21:00,
2013-02-03 17:26:00,54.4,43.3,30.17,NNE,20,0.0,0.0,66,0.00,,,0.00,7,WeatherCatV1.13B119,2013-02-04 01:26:00,
2013-02-03 17:31:00,54.3,43.2,30.17,NNE,20,0.0,0.0,66,0.00,,,0.00,5,WeatherCatV1.13B119,2013-02-04 01:31:00,
2013-02-03 17:36:00,54.1,43.0,30.17,NNE,19,0.0,0.0,66,0.00,,,0.00,0,WeatherCatV1.13B119,2013-02-04 01:36:00,
2013-02-03 17:40:00,53.9,42.8,30.18,NNE,19,0.0,0.0,66,0.00,,,0.00,0,WeatherCatV1.13B119,2013-02-04 01:40:00,
2013-02-03 17:46:00,53.7,42.6,30.18,NNE,20,0.0,0.0,66,0.00,,,0.00,0,WeatherCatV1.13B119,2013-02-04 01:46:00,
2013-02-03 17:50:00,53.4,42.3,30.18,NNE,20,0.0,0.0,66,0.00,,,0.00,0,WeatherCatV1.13B119,2013-02-04 01:50:00,
2013-02-03 17:55:00,53.1,42.4,30.18,NNE,20,0.0,0.0,67,0.00,,,0.00,0,WeatherCatV1.13B119,2013-02-04 01:55:00,
2013-02-03 18:00:00,52.9,42.2,30.18,NNE,19,0.0,0.0,67,0.00,,,0.00,0,WeatherCatV1.13B119,2013-02-04 02:00:00,
2013-02-03 18:05:00,52.6,42.3,30.18,NNE,20,0.0,0.0,68,0.00,,,0.00,0,WeatherCatV1.13B119,2013-02-04 02:05:00,
2013-02-03 18:10:00,52.3,42.1,30.18,NNE,20,0.0,0.0,68,0.00,,,0.00,0,WeatherCatV1.13B119,2013-02-04 02:10:00,
2013-02-03 18:15:00,52.0,42.1,30.18,NNE,20,0.0,0.0,69,0.00,,,0.00,0,WeatherCatV1.13B119,2013-02-04 02:15:00,
2013-02-03 18:20:00,51.7,42.2,30.18,NNE,20,0.0,0.0,70,0.00,,,0.00,0,WeatherCatV1.13B119,2013-02-04 02:20:00,
2013-02-03 18:25:00,51.4,42.3,30.18,NNE,19,0.0,0.0,71,0.00,,,0.00,0,WeatherCatV1.13B119,2013-02-04 02:25:00,
2013-02-03 18:30:00,51.1,42.4,30.18,NNE,20,0.0,0.0,72,0.00,,,0.00,0,WeatherCatV1.13B119,2013-02-04 02:30:00,
2013-02-03 18:35:00,50.8,42.1,30.18,NNE,20,0.0,0.0,72,0.00,,,0.00,0,WeatherCatV1.13B119,2013-02-04 02:35:00,
2013-02-03 18:40:00,50.5,42.2,30.18,NNE,19,0.0,0.0,73,0.00,,,0.00,0,WeatherCatV1.13B119,2013-02-04 02:40:00,
2013-02-03 18:45:00,50.1,41.8,30.18,NNE,19,0.0,0.0,73,0.00,,,0.00,0,WeatherCatV1.13B119,2013-02-04 02:45:00,
2013-02-03 18:50:00,49.9,41.6,30.18,NNE,19,0.0,0.0,73,0.00,,,0.00,0,WeatherCatV1.13B119,2013-02-04 02:50:00,
2013-02-03 18:55:00,49.6,41.7,30.18,NNE,20,0.0,0.0,74,0.00,,,0.00,0,WeatherCatV1.13B119,2013-02-04 02:55:00,
2013-02-03 19:00:00,49.3,41.4,30.18,NNE,20,0.0,0.0,74,0.00,,,0.00,0,WeatherCatV1.13B119,2013-02-04 03:00:00,
2013-02-03 19:05:00,49.0,41.1,30.19,NNE,20,0.0,0.0,74,0.00,,,0.00,0,WeatherCatV1.13B119,2013-02-04 03:05:00,
2013-02-03 19:10:00,48.8,41.2,30.19,NNE,19,0.0,0.0,75,0.00,,,0.00,0,WeatherCatV1.13B119,2013-02-04 03:10:00,
2013-02-03 19:15:00,48.5,40.9,30.19,NNE,19,0.0,0.0,75,0.00,,,0.00,0,WeatherCatV1.13B119,2013-02-04 03:15:00,
2013-02-03 19:20:00,48.3,40.7,30.19,NNE,20,0.0,0.0,75,0.00,,,0.00,0,WeatherCatV1.13B119,2013-02-04 03:20:00,
2013-02-03 19:25:00,48.1,40.6,30.19,NNE,20,0.0,0.0,75,0.00,,,0.00,0,WeatherCatV1.13B119,2013-02-04 03:25:00,
2013-02-03 19:30:00,47.8,40.6,30.19,NNE,20,0.0,0.0,76,0.00,,,0.00,0,WeatherCatV1.13B119,2013-02-04 03:30:00,
2013-02-03 19:35:00,47.5,40.3,30.19,NNE,19,0.0,0.0,76,0.00,,,0.00,0,WeatherCatV1.13B119,2013-02-04 03:35:00,
2013-02-03 19:40:00,47.3,40.5,30.19,NNE,19,0.0,0.0,77,0.00,,,0.00,0,WeatherCatV1.13B119,2013-02-04 03:40:00,
2013-02-03 19:45:00,47.1,40.3,30.19,NNE,20,0.0,0.0,77,0.00,,,0.00,0,WeatherCatV1.13B119,2013-02-04 03:45:00,
2013-02-03 19:50:00,46.9,40.1,30.19,NNE,20,0.0,0.0,77,0.00,,,0.00,0,WeatherCatV1.13B119,2013-02-04 03:50:00,
2013-02-03 19:55:00,46.7,39.9,30.19,NNE,20,0.0,0.0,77,0.00,,,0.00,0,WeatherCatV1.13B119,2013-02-04 03:55:00,
2013-02-03 20:00:00,46.5,39.7,30.19,NNE,20,0.0,0.0,77,0.00,,,0.00,0,WeatherCatV1.13B119,2013-02-04 04:00:00,
2013-02-03 20:05:00,46.2,39.7,30.19,NNE,19,0.0,0.0,78,0.00,,,0.00,0,WeatherCatV1.13B119,2013-02-04 04:05:00,
2013-02-03 20:10:00,46.0,39.5,30.20,NNE,20,0.0,0.0,78,0.00,,,0.00,0,WeatherCatV1.13B119,2013-02-04 04:10:00,
2013-02-03 20:15:00,45.8,39.3,30.20,NNE,20,0.0,0.0,78,0.00,,,0.00,0,WeatherCatV1.13B119,2013-02-04 04:15:00,
2013-02-03 20:20:00,45.6,39.1,30.20,NNE,19,0.0,0.0,78,0.00,,,0.00,0,WeatherCatV1.13B119,2013-02-04 04:20:00,
2013-02-03 20:25:00,45.4,39.3,30.20,NNE,20,0.0,0.0,79,0.00,,,0.00,0,WeatherCatV1.13B119,2013-02-04 04:25:00,
2013-02-03 20:30:00,45.2,39.1,30.20,NNE,19,0.0,0.0,79,0.00,,,0.00,0,WeatherCatV1.13B119,2013-02-04 04:30:00,
2013-02-03 20:35:00,45.1,39.0,30.20,NNE,20,0.0,0.0,79,0.00,,,0.00,0,WeatherCatV1.13B119,2013-02-04 04:35:00,
2013-02-03 20:40:00,45.0,38.9,30.20,NNE,20,0.0,0.0,79,0.00,,,0.00,0,WeatherCatV1.13B119,2013-02-04 04:40:00,
2013-02-03 20:45:00,44.8,38.7,30.20,NNE,19,0.0,0.0,79,0.00,,,0.00,0,WeatherCatV1.13B119,2013-02-04 04:45:00,
2013-02-03 20:50:00,44.6,38.8,30.20,NNE,20,0.0,0.0,80,0.00,,,0.00,0,WeatherCatV1.13B119,2013-02-04 04:50:00,
2013-02-03 20:55:00,44.4,38.6,30.20,NNE,20,0.0,0.0,80,0.00,,,0.00,0,WeatherCatV1.13B119,2013-02-04 04:55:00,
2013-02-03 21:00:00,44.3,38.5,30.19,NNE,20,0.0,0.0,80,0.00,,,0.00,0,WeatherCatV1.13B119,2013-02-04 05:00:00,
2013-02-03 21:01:00,44.2,38.4,30.20,NNE,20,0.0,0.0,80,0.00,,,0.00,0,WeatherCatV1.13B119,2013-02-04 05:01:00,
2013-02-03 21:06:00,44.1,38.3,30.19,NNE,20,0.0,0.0,80,0.00,,,0.00,0,WeatherCatV1.13B119,2013-02-04 05:06:00,
2013-02-03 21:11:00,44.0,38.2,30.19,NNE,20,0.0,0.0,80,0.00,,,0.00,0,WeatherCatV1.13B119,2013-02-04 05:11:00,
2013-02-03 21:16:00,43.8,38.4,30.19,NNE,20,0.0,0.0,81,0.00,,,0.00,0,WeatherCatV1.13B119,2013-02-04 05:16:00,
2013-02-03 21:21:00,43.7,38.3,30.19,NNE,20,0.0,0.0,81,0.00,,,0.00,0,WeatherCatV1.13B119,2013-02-04 05:21:00,
2013-02-03 21:26:00,43.5,38.1,30.19,NNE,19,0.0,0.0,81,0.00,,,0.00,0,WeatherCatV1.13B119,2013-02-04 05:26:00,
2013-02-03 21:31:00,43.3,37.9,30.19,NNE,19,0.0,0.0,81,0.00,,,0.00,0,WeatherCatV1.13B119,2013-02-04 05:31:00,
2013-02-03 21:36:00,43.2,38.1,30.19,NNE,20,0.0,0.0,82,0.00,,,0.00,0,WeatherCatV1.13B119,2013-02-04 05:36:00,
2013-02-03 21:41:00,43.1,38.0,30.19,NNE,19,0.0,0.0,82,0.00,,,0.00,0,WeatherCatV1.13B119,2013-02-04 05:41:00,
2013-02-03 21:46:00,42.9,37.8,30.20,NNE,19,0.0,0.0,82,0.00,,,0.00,0,WeatherCatV1.13B119,2013-02-04 05:46:00,
2013-02-03 21:51:00,42.8,37.7,30.19,NNE,19,0.0,0.0,82,0.00,,,0.00,0,WeatherCatV1.13B119,2013-02-04 05:51:00,
2013-02-03 21:56:00,42.7,37.6,30.20,NNE,20,0.0,0.0,82,0.00,,,0.00,0,WeatherCatV1.13B119,2013-02-04 05:56:00,
2013-02-03 22:01:00,42.5,37.4,30.20,NNE,20,0.0,0.0,82,0.00,,,0.00,0,WeatherCatV1.13B119,2013-02-04 06:01:00,
2013-02-03 22:06:00,42.4,37.6,30.20,NNE,20,0.0,0.0,83,0.00,,,0.00,0,WeatherCatV1.13B119,2013-02-04 06:06:00,
2013-02-03 22:11:00,42.3,37.5,30.19,NNE,19,0.0,0.0,83,0.00,,,0.00,0,WeatherCatV1.13B119,2013-02-04 06:11:00,
2013-02-03 22:16:00,42.2,37.4,30.19,NNE,19,0.0,0.0,83,0.00,,,0.00,0,WeatherCatV1.13B119,2013-02-04 06:16:00,
2013-02-03 22:21:00,42.1,37.3,30.19,NNE,19,0.0,0.0,83,0.00,,,0.00,0,WeatherCatV1.13B119,2013-02-04 06:21:00,
2013-02-03 22:25:00,42.0,37.2,30.19,NNE,20,0.0,0.0,83,0.00,,,0.00,0,WeatherCatV1.13B119,2013-02-04 06:25:00,
2013-02-03 22:30:00,41.9,37.1,30.19,NNE,20,0.0,0.0,83,0.00,,,0.00,0,WeatherCatV1.13B119,2013-02-04 06:30:00,
2013-02-03 22:35:00,41.8,37.0,30.19,NNE,20,0.0,0.0,83,0.00,,,0.00,0,WeatherCatV1.13B119,2013-02-04 06:35:00,
2013-02-03 22:40:00,41.7,36.9,30.20,NNE,19,0.0,0.0,83,0.00,,,0.00,0,WeatherCatV1.13B119,2013-02-04 06:40:00,
2013-02-03 22:45:00,41.6,36.8,30.19,NNE,20,0.0,0.0,83,0.00,,,0.00,0,WeatherCatV1.13B119,2013-02-04 06:45:00,
2013-02-03 22:50:00,41.5,37.0,30.20,NNE,20,0.0,0.0,84,0.00,,,0.00,0,WeatherCatV1.13B119,2013-02-04 06:50:00,
2013-02-03 22:55:00,41.4,36.9,30.20,NNE,20,0.0,0.0,84,0.00,,,0.00,0,WeatherCatV1.13B119,2013-02-04 06:55:00,
2013-02-03 23:00:00,41.3,36.8,30.20,NNE,19,0.0,0.0,84,0.00,,,0.00,0,WeatherCatV1.13B119,2013-02-04 07:00:00,
2013-02-03 23:05:00,41.2,36.7,30.20,NNE,20,0.0,0.0,84,0.00,,,0.00,0,WeatherCatV1.13B119,2013-02-04 07:05:00,
2013-02-03 23:10:00,41.1,36.6,30.20,NNE,20,0.0,0.0,84,0.00,,,0.00,0,WeatherCatV1.13B119,2013-02-04 07:10:00,
2013-02-03 23:15:00,41.0,36.5,30.20,NNE,20,0.0,0.0,84,0.00,,,0.00,0,WeatherCatV1.13B119,2013-02-04 07:15:00,
2013-02-03 23:20:00,40.9,36.4,30.20,NNE,19,0.0,0.0,84,0.00,,,0.00,0,WeatherCatV1.13B119,2013-02-04 07:20:00,
2013-02-03 23:25:00,40.9,36.4,30.20,NNE,19,0.0,0.0,84,0.00,,,0.00,0,WeatherCatV1.13B119,2013-02-04 07:25:00,
2013-02-03 23:30:00,40.8,36.3,30.20,NNE,19,0.0,0.0,84,0.00,,,0.00,0,WeatherCatV1.13B119,2013-02-04 07:30:00,
2013-02-03 23:35:00,40.7,36.2,30.19,NNE,20,0.0,0.0,84,0.00,,,0.00,0,WeatherCatV1.13B119,2013-02-04 07:35:00,
2013-02-03 23:40:00,40.7,36.2,30.20,NNE,20,0.0,0.0,84,0.00,,,0.00,0,WeatherCatV1.13B119,2013-02-04 07:40:00,
2013-02-03 23:45:00,40.6,36.5,30.20,NNE,19,0.0,0.0,85,0.00,,,0.00,0,WeatherCatV1.13B119,2013-02-04 07:45:00,
2013-02-03 23:50:00,40.5,36.4,30.19,NNE,19,0.0,0.0,85,0.00,,,0.00,0,WeatherCatV1.13B119,2013-02-04 07:50:00,
2013-02-03 23:55:00,40.4,36.3,30.19,NNE,19,0.0,0.0,85,0.00,,,0.00,0,WeatherCatV1.13B119,2013-02-04 07:55:00,